createdAt,value
2018-03-01T00:00:34.909Z,12.30
2018-03-01T00:01:34.889Z,12.40
2018-03-01T00:02:34.864Z,12.50
2018-03-01T00:03:34.833Z,11.70
2018-03-01T00:04:34.814Z,12.40
2018-03-01T00:05:34.783Z,11.80
2018-03-01T00:06:34.759Z,11.90
2018-03-01T00:07:34.734Z,12.20
2018-03-01T00:08:34.714Z,11.80
2018-03-01T00:09:34.683Z,12.20
2018-03-01T00:10:34.658Z,12.90
2018-03-01T00:11:34.630Z,12.10
2018-03-01T00:12:34.613Z,12.30
2018-03-01T00:13:34.585Z,12.50
2018-03-01T00:14:34.558Z,12.40
2018-03-01T00:15:34.532Z,13.00
2018-03-01T00:16:34.504Z,11.80
2018-03-01T00:17:34.507Z,12.30
2018-03-01T00:18:34.453Z,12.00
2018-03-01T00:19:34.432Z,12.00
2018-03-01T00:20:34.400Z,12.40
2018-03-01T00:21:34.380Z,11.80
2018-03-01T00:22:34.351Z,12.50
2018-03-01T00:23:34.330Z,12.80
2018-03-01T00:24:34.307Z,11.70
2018-03-01T00:25:34.273Z,12.30
2018-03-01T00:26:34.252Z,11.70
2018-03-01T00:27:34.221Z,12.10
2018-03-01T00:28:34.202Z,12.30
2018-03-01T00:29:34.174Z,11.50
2018-03-01T00:30:34.153Z,12.40
2018-03-01T00:31:34.123Z,11.90
2018-03-01T00:32:34.102Z,11.70
2018-03-01T00:33:34.074Z,12.00
2018-03-01T00:34:34.124Z,12.40
2018-03-01T00:35:34.019Z,12.10
2018-03-01T00:36:34.004Z,11.90
2018-03-01T00:37:33.977Z,12.00
2018-03-01T00:38:33.955Z,12.50
2018-03-01T00:39:33.916Z,12.40
2018-03-01T00:40:33.898Z,12.20
2018-03-01T00:41:33.868Z,11.60
2018-03-01T00:42:33.847Z,12.50
2018-03-01T00:43:33.815Z,12.20
2018-03-01T00:44:33.797Z,12.20
2018-03-01T00:45:33.764Z,11.60
2018-03-01T00:46:33.743Z,11.50
2018-03-01T00:47:33.714Z,12.80
2018-03-01T00:48:33.694Z,10.90
2018-03-01T00:49:33.666Z,11.90
2018-03-01T00:50:33.638Z,12.00
2018-03-01T00:51:33.615Z,11.90
2018-03-01T00:52:33.588Z,11.60
2018-03-01T00:53:33.565Z,13.00
2018-03-01T00:54:33.538Z,12.40
2018-03-01T00:55:33.512Z,12.00
2018-03-01T00:56:33.484Z,12.40
2018-03-01T00:57:33.457Z,12.20
2018-03-01T00:58:33.432Z,12.40
2018-03-01T00:59:33.409Z,12.20
2018-03-01T01:00:33.381Z,12.30
2018-03-01T01:01:33.357Z,11.60
2018-03-01T01:02:33.333Z,12.80
2018-03-01T01:03:33.304Z,11.80
2018-03-01T01:04:33.281Z,12.10
2018-03-01T01:05:33.255Z,11.90
2018-03-01T01:06:33.230Z,12.20
2018-03-01T01:07:33.202Z,11.90
2018-03-01T01:08:33.178Z,12.10
2018-03-01T01:09:33.155Z,11.80
2018-03-01T01:10:33.128Z,12.20
2018-03-01T01:11:33.103Z,12.00
2018-03-01T01:12:33.074Z,11.90
2018-03-01T01:13:33.051Z,12.60
2018-03-01T01:14:33.025Z,11.60
2018-03-01T01:15:32.995Z,11.40
2018-03-01T01:16:32.971Z,11.90
2018-03-01T01:17:32.948Z,12.00
2018-03-01T01:18:32.922Z,11.60
2018-03-01T01:19:32.894Z,12.00
2018-03-01T01:20:32.873Z,11.70
2018-03-01T01:21:32.844Z,12.30
2018-03-01T01:22:32.820Z,12.10
2018-03-01T01:23:32.794Z,12.40
2018-03-01T01:24:32.772Z,11.50
2018-03-01T01:25:32.745Z,12.20
2018-03-01T01:26:32.715Z,11.90
2018-03-01T01:27:32.690Z,11.50
2018-03-01T01:28:32.666Z,12.50
2018-03-01T01:29:32.642Z,12.20
2018-03-01T01:30:32.616Z,11.70
2018-03-01T01:31:32.588Z,12.60
2018-03-01T01:32:32.561Z,12.60
2018-03-01T01:33:32.538Z,11.70
2018-03-01T01:34:32.509Z,11.70
2018-03-01T01:35:32.485Z,11.70
2018-03-01T01:36:32.461Z,13.00
2018-03-01T01:37:32.432Z,12.10
2018-03-01T01:38:32.408Z,12.00
2018-03-01T01:39:32.385Z,12.50
2018-03-01T01:40:32.356Z,12.40
2018-03-01T01:41:32.331Z,11.60
2018-03-01T01:42:32.318Z,11.60
2018-03-01T01:43:32.281Z,12.20
2018-03-01T01:44:32.254Z,11.90
2018-03-01T01:45:32.235Z,11.90
2018-03-01T01:46:32.202Z,11.70
2018-03-01T01:47:32.182Z,12.30
2018-03-01T01:48:32.150Z,11.50
2018-03-01T01:49:32.126Z,11.60
2018-03-01T01:50:32.115Z,12.60
2018-03-01T01:51:32.074Z,12.00
2018-03-01T01:52:32.052Z,11.60
2018-03-01T01:53:32.022Z,11.20
2018-03-01T01:54:32.001Z,12.80
2018-03-01T01:55:31.971Z,12.10
2018-03-01T01:56:31.946Z,12.30
2018-03-01T01:57:31.918Z,11.80
2018-03-01T01:58:31.894Z,11.90
2018-03-01T01:59:31.980Z,12.10
2018-03-01T02:00:31.838Z,11.80
2018-03-01T02:01:31.815Z,11.80
2018-03-01T02:02:31.792Z,12.40
2018-03-01T02:03:31.766Z,12.50
2018-03-01T02:04:31.838Z,12.90
2018-03-01T02:05:31.711Z,12.20
2018-03-01T02:06:31.687Z,11.60
2018-03-01T02:07:31.661Z,12.20
2018-03-01T02:08:31.637Z,13.00
2018-03-01T02:09:31.616Z,12.70
2018-03-01T02:10:31.583Z,12.20
2018-03-01T02:11:31.559Z,13.40
2018-03-01T02:12:31.531Z,12.70
2018-03-01T02:13:31.511Z,12.60
2018-03-01T02:14:31.481Z,12.20
2018-03-01T02:15:31.458Z,12.40
2018-03-01T02:16:31.432Z,12.50
2018-03-01T02:17:31.403Z,11.80
2018-03-01T02:18:31.376Z,12.90
2018-03-01T02:19:31.350Z,12.30
2018-03-01T02:20:31.325Z,12.50
2018-03-01T02:21:31.301Z,11.90
2018-03-01T02:22:31.276Z,12.30
2018-03-01T02:23:31.250Z,12.40
2018-03-01T02:24:31.224Z,12.30
2018-03-01T02:25:31.196Z,12.20
2018-03-01T02:26:31.175Z,12.20
2018-03-01T02:27:31.146Z,11.60
2018-03-01T02:28:31.122Z,12.60
2018-03-01T02:29:31.113Z,12.00
2018-03-01T02:30:31.074Z,11.90
2018-03-01T02:31:31.044Z,12.30
2018-03-01T02:32:31.016Z,12.00
2018-03-01T02:33:30.996Z,12.40
2018-03-01T02:34:30.970Z,11.50
2018-03-01T02:35:30.941Z,12.20
2018-03-01T02:36:30.917Z,12.60
2018-03-01T02:37:30.891Z,12.60
2018-03-01T02:38:30.862Z,11.90
2018-03-01T02:39:30.835Z,12.30
2018-03-01T02:40:30.816Z,11.50
2018-03-01T02:41:30.786Z,12.70
2018-03-01T02:42:30.768Z,12.40
2018-03-01T02:43:30.733Z,12.80
2018-03-01T02:44:30.710Z,11.60
2018-03-01T02:45:30.677Z,12.60
2018-03-01T02:46:30.652Z,12.60
2018-03-01T02:47:30.630Z,12.30
2018-03-01T02:48:30.614Z,12.40
2018-03-01T02:49:30.575Z,12.70
2018-03-01T02:50:30.551Z,12.80
2018-03-01T02:51:30.526Z,12.30
2018-03-01T02:52:30.506Z,12.50
2018-03-01T02:53:30.483Z,12.10
2018-03-01T02:54:30.446Z,12.60
2018-03-01T02:55:30.422Z,12.30
2018-03-01T02:56:30.394Z,12.60
2018-03-01T02:57:30.370Z,12.90
2018-03-01T02:58:30.376Z,12.80
2018-03-01T02:59:30.317Z,12.80
2018-03-01T03:00:30.291Z,12.10
2018-03-01T03:01:30.269Z,13.20
2018-03-01T03:02:30.239Z,12.80
2018-03-01T03:03:30.215Z,12.60
2018-03-01T03:04:30.184Z,13.80
2018-03-01T03:05:30.161Z,13.30
2018-03-01T03:06:30.174Z,12.50
2018-03-01T03:07:30.109Z,12.60
2018-03-01T03:08:30.082Z,12.30
2018-03-01T03:09:30.056Z,12.70
2018-03-01T03:10:30.035Z,12.50
2018-03-01T03:11:30.006Z,11.90
2018-03-01T03:12:29.980Z,12.30
2018-03-01T03:13:29.964Z,13.40
2018-03-01T03:14:29.933Z,11.90
2018-03-01T03:15:29.900Z,12.40
2018-03-01T03:16:29.875Z,12.60
2018-03-01T03:17:29.852Z,13.00
2018-03-01T03:18:29.821Z,12.00
2018-03-01T03:19:29.797Z,11.70
2018-03-01T03:20:29.772Z,12.10
2018-03-01T03:21:29.746Z,12.00
2018-03-01T03:22:29.725Z,12.00
2018-03-01T03:23:29.692Z,12.10
2018-03-01T03:24:29.669Z,11.90
2018-03-01T03:25:29.645Z,11.50
2018-03-01T03:26:29.614Z,11.70
2018-03-01T03:27:29.595Z,11.70
2018-03-01T03:28:29.564Z,12.20
2018-03-01T03:29:29.542Z,12.50
2018-03-01T03:30:29.528Z,13.00
2018-03-01T03:31:29.496Z,11.90
2018-03-01T03:32:29.461Z,12.40
2018-03-01T03:33:29.445Z,11.30
2018-03-01T03:34:29.407Z,11.90
2018-03-01T03:35:29.384Z,11.70
2018-03-01T03:36:29.356Z,12.50
2018-03-01T03:37:29.384Z,12.70
2018-03-01T03:38:29.300Z,12.00
2018-03-01T03:39:29.274Z,12.30
2018-03-01T03:40:29.249Z,12.80
2018-03-01T03:41:29.223Z,13.10
2018-03-01T03:42:29.202Z,12.50
2018-03-01T03:43:29.168Z,12.00
2018-03-01T03:44:29.154Z,12.60
2018-03-01T03:45:29.121Z,12.10
2018-03-01T03:46:29.095Z,12.00
2018-03-01T03:47:29.065Z,11.70
2018-03-01T03:48:29.042Z,12.20
2018-03-01T03:49:29.019Z,11.70
2018-03-01T03:50:28.995Z,12.60
2018-03-01T03:51:28.964Z,12.40
2018-03-01T03:52:28.936Z,11.90
2018-03-01T03:53:28.920Z,12.00
2018-03-01T03:54:28.889Z,11.90
2018-03-01T03:55:28.862Z,12.40
2018-03-01T03:56:28.833Z,12.20
2018-03-01T03:57:28.805Z,12.20
2018-03-01T03:58:28.782Z,12.60
2018-03-01T03:59:28.753Z,12.60
2018-03-01T04:00:28.727Z,12.20
2018-03-01T04:01:28.702Z,12.70
2018-03-01T04:02:28.676Z,11.80
2018-03-01T04:03:28.649Z,12.90
2018-03-01T04:04:28.622Z,11.90
2018-03-01T04:05:28.595Z,13.20
2018-03-01T04:06:28.576Z,12.80
2018-03-01T04:07:28.543Z,12.40
2018-03-01T04:08:28.519Z,12.60
2018-03-01T04:09:28.491Z,12.50
2018-03-01T04:10:28.466Z,13.30
2018-03-01T04:11:28.438Z,12.60
2018-03-01T04:12:28.412Z,12.30
2018-03-01T04:13:28.386Z,13.00
2018-03-01T04:14:28.361Z,12.70
2018-03-01T04:15:28.339Z,12.50
2018-03-01T04:16:28.314Z,12.40
2018-03-01T04:17:28.285Z,12.60
2018-03-01T04:18:28.255Z,12.80
2018-03-01T04:19:28.232Z,12.70
2018-03-01T04:20:28.201Z,13.50
2018-03-01T04:21:28.176Z,13.20
2018-03-01T04:22:28.150Z,12.90
2018-03-01T04:23:28.124Z,14.00
2018-03-01T04:24:28.099Z,12.90
2018-03-01T04:25:28.074Z,13.50
2018-03-01T04:26:28.045Z,14.40
2018-03-01T04:27:28.026Z,13.70
2018-03-01T04:28:27.994Z,14.30
2018-03-01T04:29:27.964Z,14.00
2018-03-01T04:30:27.994Z,12.90
2018-03-01T04:31:27.913Z,14.50
2018-03-01T04:32:27.946Z,12.80
2018-03-01T04:33:27.866Z,13.40
2018-03-01T04:34:27.844Z,13.70
2018-03-01T04:35:27.811Z,13.40
2018-03-01T04:36:27.784Z,13.40
2018-03-01T04:37:27.755Z,13.80
2018-03-01T04:38:27.737Z,14.10
2018-03-01T04:39:27.702Z,14.60
2018-03-01T04:40:27.829Z,14.00
2018-03-01T04:41:27.654Z,14.40
2018-03-01T04:42:27.631Z,14.30
2018-03-01T04:43:27.599Z,14.70
2018-03-01T04:44:27.569Z,14.00
2018-03-01T04:45:27.797Z,14.10
2018-03-01T04:46:27.524Z,14.80
2018-03-01T04:47:27.494Z,14.60
2018-03-01T04:48:27.569Z,14.50
2018-03-01T04:49:27.445Z,14.50
2018-03-01T04:50:27.500Z,13.80
2018-03-01T04:51:27.390Z,14.90
2018-03-01T04:52:27.523Z,14.90
2018-03-01T04:53:27.335Z,15.10
2018-03-01T04:54:27.310Z,15.10
2018-03-01T04:55:27.287Z,14.90
2018-03-01T04:56:27.257Z,14.60
2018-03-01T04:57:27.233Z,15.10
2018-03-01T04:58:27.206Z,14.80
2018-03-01T04:59:27.176Z,15.10
2018-03-01T05:00:27.155Z,15.70
2018-03-01T05:01:27.129Z,14.50
2018-03-01T05:02:27.098Z,16.10
2018-03-01T05:03:27.074Z,15.40
2018-03-01T05:04:27.055Z,15.80
2018-03-01T05:05:27.021Z,16.00
2018-03-01T05:06:26.998Z,15.50
2018-03-01T05:07:26.967Z,15.70
2018-03-01T05:08:26.945Z,15.10
2018-03-01T05:09:26.914Z,15.20
2018-03-01T05:10:26.890Z,15.20
2018-03-01T05:11:26.863Z,15.30
2018-03-01T05:12:26.834Z,16.00
2018-03-01T05:13:26.810Z,15.60
2018-03-01T05:14:26.785Z,15.70
2018-03-01T05:15:26.757Z,15.60
2018-03-01T05:16:26.736Z,15.80
2018-03-01T05:17:26.704Z,15.40
2018-03-01T05:18:26.681Z,15.50
2018-03-01T05:19:26.652Z,16.30
2018-03-01T05:20:26.626Z,16.30
2018-03-01T05:21:26.597Z,15.80
2018-03-01T05:22:26.574Z,16.40
2018-03-01T05:23:26.545Z,15.80
2018-03-01T05:24:26.518Z,16.20
2018-03-01T05:25:26.495Z,15.90
2018-03-01T05:26:26.472Z,16.30
2018-03-01T05:27:26.439Z,16.50
2018-03-01T05:28:26.416Z,15.80
2018-03-01T05:29:26.391Z,16.40
2018-03-01T05:30:26.362Z,16.50
2018-03-01T05:31:26.336Z,16.50
2018-03-01T05:32:26.313Z,16.60
2018-03-01T05:33:26.286Z,17.80
2018-03-01T05:34:26.260Z,16.90
2018-03-01T05:35:26.233Z,17.00
2018-03-01T05:36:26.207Z,16.50
2018-03-01T05:37:26.178Z,17.40
2018-03-01T05:38:26.153Z,16.80
2018-03-01T05:39:26.180Z,16.50
2018-03-01T05:40:26.109Z,17.50
2018-03-01T05:41:26.070Z,17.40
2018-03-01T05:42:26.051Z,17.10
2018-03-01T05:43:26.024Z,17.20
2018-03-01T05:44:25.996Z,17.40
2018-03-01T05:45:25.972Z,17.30
2018-03-01T05:46:25.947Z,18.20
2018-03-01T05:47:26.014Z,17.50
2018-03-01T05:48:25.887Z,17.80
2018-03-01T05:49:25.866Z,17.70
2018-03-01T05:50:25.837Z,16.80
2018-03-01T05:51:25.809Z,17.00
2018-03-01T05:52:25.786Z,17.20
2018-03-01T05:53:25.770Z,17.90
2018-03-01T05:54:25.725Z,17.10
2018-03-01T05:55:25.698Z,17.60
2018-03-01T05:56:25.686Z,17.40
2018-03-01T05:57:25.646Z,17.90
2018-03-01T05:58:25.622Z,17.60
2018-03-01T05:59:25.606Z,17.70
2018-03-01T06:00:25.576Z,17.10
2018-03-01T06:01:25.542Z,17.50
2018-03-01T06:02:25.517Z,17.50
2018-03-01T06:03:25.492Z,18.40
2018-03-01T06:04:25.463Z,17.40
2018-03-01T06:05:25.433Z,18.00
2018-03-01T06:06:25.408Z,18.10
2018-03-01T06:07:25.382Z,17.60
2018-03-01T06:08:25.354Z,17.90
2018-03-01T06:09:25.352Z,17.20
2018-03-01T06:10:25.307Z,18.70
2018-03-01T06:11:25.276Z,18.10
2018-03-01T06:12:25.251Z,18.40
2018-03-01T06:13:25.225Z,18.00
2018-03-01T06:14:25.201Z,18.30
2018-03-01T06:15:25.173Z,17.30
2018-03-01T06:16:25.150Z,18.10
2018-03-01T06:17:25.120Z,18.20
2018-03-01T06:18:25.093Z,17.90
2018-03-01T06:19:25.063Z,18.00
2018-03-01T06:20:25.040Z,18.00
2018-03-01T06:21:25.015Z,17.70
2018-03-01T06:22:24.987Z,17.70
2018-03-01T06:23:24.963Z,18.80
2018-03-01T06:24:24.933Z,18.60
2018-03-01T06:25:24.914Z,18.60
2018-03-01T06:26:24.892Z,18.90
2018-03-01T06:27:24.851Z,18.90
2018-03-01T06:28:24.829Z,17.70
2018-03-01T06:29:24.831Z,18.60
2018-03-01T06:30:24.775Z,18.90
2018-03-01T06:31:24.757Z,18.30
2018-03-01T06:32:24.725Z,18.80
2018-03-01T06:33:24.700Z,18.10
2018-03-01T06:34:24.673Z,18.30
2018-03-01T06:35:24.647Z,19.30
2018-03-01T06:36:24.628Z,18.80
2018-03-01T06:37:24.588Z,18.80
2018-03-01T06:38:24.563Z,19.00
2018-03-01T06:39:24.533Z,18.10
2018-03-01T06:40:24.510Z,17.70
2018-03-01T06:41:24.485Z,19.40
2018-03-01T06:42:24.455Z,18.20
2018-03-01T06:43:24.428Z,19.40
2018-03-01T06:44:24.401Z,18.50
2018-03-01T06:45:24.374Z,19.10
2018-03-01T06:46:24.351Z,18.80
2018-03-01T06:47:24.325Z,19.40
2018-03-01T06:48:24.295Z,18.70
2018-03-01T06:49:24.271Z,19.00
2018-03-01T06:50:24.245Z,19.90
2018-03-01T06:51:24.320Z,20.60
2018-03-01T06:52:24.193Z,19.20
2018-03-01T06:53:24.165Z,19.30
2018-03-01T06:54:24.142Z,18.90
2018-03-01T06:55:24.113Z,18.50
2018-03-01T06:56:24.087Z,17.90
2018-03-01T06:57:24.060Z,18.90
2018-03-01T06:58:24.035Z,19.50
2018-03-01T06:59:24.010Z,19.50
2018-03-01T07:00:23.986Z,18.60
2018-03-01T07:01:23.954Z,18.60
2018-03-01T07:02:23.930Z,20.30
2018-03-01T07:03:23.904Z,19.10
2018-03-01T07:04:23.875Z,19.70
2018-03-01T07:05:23.851Z,19.80
2018-03-01T07:06:23.825Z,19.00
2018-03-01T07:07:23.796Z,19.40
2018-03-01T07:08:23.768Z,18.30
2018-03-01T07:09:23.753Z,19.50
2018-03-01T07:10:23.718Z,19.90
2018-03-01T07:11:23.692Z,19.10
2018-03-01T07:12:23.668Z,19.30
2018-03-01T07:13:23.645Z,18.80
2018-03-01T07:14:23.612Z,19.10
2018-03-01T07:15:23.586Z,19.40
2018-03-01T07:16:23.562Z,19.20
2018-03-01T07:17:23.536Z,18.90
2018-03-01T07:18:23.509Z,19.60
2018-03-01T07:19:23.490Z,20.10
2018-03-01T07:20:23.459Z,19.10
2018-03-01T07:21:23.429Z,19.80
2018-03-01T07:22:23.404Z,18.90
2018-03-01T07:23:23.382Z,19.70
2018-03-01T07:24:23.354Z,19.00
2018-03-01T07:25:23.325Z,20.20
2018-03-01T07:26:23.304Z,19.50
2018-03-01T07:27:23.272Z,20.30
2018-03-01T07:28:23.248Z,19.00
2018-03-01T07:29:23.227Z,18.80
2018-03-01T07:30:23.197Z,19.40
2018-03-01T07:31:23.171Z,20.50
2018-03-01T07:32:23.143Z,19.00
2018-03-01T07:33:23.122Z,19.20
2018-03-01T07:34:23.094Z,19.30
2018-03-01T07:35:23.071Z,20.40
2018-03-01T07:36:23.040Z,19.10
2018-03-01T07:37:23.013Z,20.20
2018-03-01T07:38:23.001Z,19.80
2018-03-01T07:39:22.965Z,19.10
2018-03-01T07:40:22.940Z,19.60
2018-03-01T07:41:22.919Z,19.00
2018-03-01T07:42:22.895Z,18.50
2018-03-01T07:43:22.860Z,19.40
2018-03-01T07:44:22.891Z,19.50
2018-03-01T07:45:22.807Z,19.60
2018-03-01T07:46:22.786Z,19.30
2018-03-01T07:47:22.761Z,19.00
2018-03-01T07:48:22.734Z,19.50
2018-03-01T07:49:22.706Z,19.50
2018-03-01T07:50:22.681Z,19.30
2018-03-01T07:51:22.658Z,19.20
2018-03-01T07:52:22.631Z,19.30
2018-03-01T07:53:22.609Z,17.90
2018-03-01T07:54:22.586Z,19.40
2018-03-01T07:55:22.553Z,19.10
2018-03-01T07:56:22.537Z,18.90
2018-03-01T07:57:22.551Z,21.10
2018-03-01T07:58:22.482Z,20.50
2018-03-01T07:59:22.461Z,24.80
2018-03-01T08:00:22.432Z,20.30
2018-03-01T08:01:22.404Z,18.80
2018-03-01T08:02:22.378Z,18.70
2018-03-01T08:03:22.351Z,20.10
2018-03-01T08:04:22.383Z,19.50
2018-03-01T08:05:22.303Z,19.80
2018-03-01T08:06:22.275Z,19.30
2018-03-01T08:07:22.255Z,20.00
2018-03-01T08:08:22.229Z,19.40
2018-03-01T08:09:22.206Z,18.90
2018-03-01T08:10:22.181Z,19.00
2018-03-01T08:11:22.153Z,19.50
2018-03-01T08:12:22.125Z,19.10
2018-03-01T08:13:22.099Z,19.10
2018-03-01T08:14:22.082Z,18.70
2018-03-01T08:15:22.056Z,19.30
2018-03-01T08:16:22.025Z,19.40
2018-03-01T08:17:22.002Z,19.10
2018-03-01T08:18:21.980Z,19.30
2018-03-01T08:19:21.949Z,19.00
2018-03-01T08:20:21.932Z,18.40
2018-03-01T08:21:21.901Z,19.00
2018-03-01T08:22:21.878Z,18.90
2018-03-01T08:23:21.852Z,17.50
2018-03-01T08:24:21.921Z,18.80
2018-03-01T08:25:21.831Z,18.50
2018-03-01T08:26:21.783Z,18.20
2018-03-01T08:27:21.752Z,18.50
2018-03-01T08:28:21.780Z,18.90
2018-03-01T08:29:21.703Z,18.60
2018-03-01T08:30:21.683Z,18.50
2018-03-01T08:31:21.684Z,18.20
2018-03-01T08:32:21.631Z,18.80
2018-03-01T08:33:21.608Z,18.60
2018-03-01T08:34:21.636Z,18.70
2018-03-01T08:35:21.560Z,18.20
2018-03-01T08:36:21.534Z,18.90
2018-03-01T08:37:21.510Z,18.40
2018-03-01T08:38:21.523Z,18.60
2018-03-01T08:39:21.463Z,18.40
2018-03-01T08:40:21.476Z,18.70
2018-03-01T08:41:21.424Z,17.10
2018-03-01T08:42:21.392Z,18.90
2018-03-01T08:43:21.368Z,18.60
2018-03-01T08:44:21.352Z,18.80
2018-03-01T08:45:21.320Z,19.10
2018-03-01T08:46:21.296Z,18.40
2018-03-01T08:47:21.284Z,18.20
2018-03-01T08:48:21.251Z,18.60
2018-03-01T08:49:21.231Z,18.00
2018-03-01T08:50:21.206Z,18.60
2018-03-01T08:51:21.183Z,18.10
2018-03-01T08:52:21.162Z,18.40
2018-03-01T08:53:21.140Z,18.60
2018-03-01T08:54:21.118Z,17.40
2018-03-01T08:55:21.101Z,17.60
2018-03-01T08:56:21.073Z,18.80
2018-03-01T08:57:21.051Z,18.30
2018-03-01T08:58:21.029Z,16.60
2018-03-01T08:59:21.010Z,17.90
2018-03-01T09:00:20.987Z,18.50
2018-03-01T09:01:21.066Z,17.70
2018-03-01T09:02:20.950Z,18.10
2018-03-01T09:03:20.929Z,16.70
2018-03-01T09:04:20.910Z,16.50
2018-03-01T09:05:20.896Z,17.10
2018-03-01T09:06:20.864Z,16.40
2018-03-01T09:07:20.844Z,18.70
2018-03-01T09:08:20.832Z,17.20
2018-03-01T09:09:20.815Z,17.00
2018-03-01T09:10:20.789Z,16.70
2018-03-01T09:11:20.764Z,18.00
2018-03-01T09:12:20.746Z,17.20
2018-03-01T09:13:20.726Z,15.60
2018-03-01T09:14:20.710Z,16.30
2018-03-01T09:15:20.685Z,15.70
2018-03-01T09:16:20.674Z,16.30
2018-03-01T09:17:20.656Z,16.20
2018-03-01T09:18:20.634Z,15.50
2018-03-01T09:19:20.613Z,15.80
2018-03-01T09:20:20.592Z,16.60
2018-03-01T09:21:20.574Z,16.50
2018-03-01T09:22:20.559Z,15.70
2018-03-01T09:23:20.535Z,16.00
2018-03-01T09:24:20.516Z,15.20
2018-03-01T09:25:20.498Z,15.60
2018-03-01T09:26:20.487Z,15.50
2018-03-01T09:27:20.463Z,14.40
2018-03-01T09:28:20.450Z,15.40
2018-03-01T09:29:20.425Z,15.40
2018-03-01T09:30:20.404Z,14.80
2018-03-01T09:31:20.394Z,15.00
2018-03-01T09:32:20.370Z,15.60
2018-03-01T09:33:20.351Z,15.10
2018-03-01T09:34:20.334Z,15.00
2018-03-01T09:35:20.319Z,15.40
2018-03-01T09:36:20.304Z,14.60
2018-03-01T09:37:20.283Z,15.00
2018-03-01T09:38:20.267Z,15.20
2018-03-01T09:39:20.242Z,15.80
2018-03-01T09:40:20.235Z,15.10
2018-03-01T09:41:20.209Z,16.10
2018-03-01T09:42:20.192Z,14.90
2018-03-01T09:43:20.181Z,15.00
2018-03-01T09:44:20.168Z,15.00
2018-03-01T09:45:20.146Z,15.60
2018-03-01T09:46:20.133Z,16.30
2018-03-01T09:47:20.113Z,15.30
2018-03-01T09:48:20.096Z,16.30
2018-03-01T09:49:20.086Z,15.70
2018-03-01T09:50:20.069Z,14.20
2018-03-01T09:51:20.052Z,13.90
2018-03-01T09:52:20.042Z,14.20
2018-03-01T09:53:20.026Z,14.40
2018-03-01T09:54:20.013Z,15.20
2018-03-01T09:55:19.997Z,15.40
2018-03-01T09:56:20.077Z,14.70
2018-03-01T09:57:19.966Z,15.50
2018-03-01T09:58:19.965Z,14.10
2018-03-01T09:59:19.942Z,13.80
2018-03-01T10:00:19.929Z,14.10
2018-03-01T10:01:19.913Z,14.90
2018-03-01T10:02:19.919Z,14.00
2018-03-01T10:03:19.891Z,14.50
2018-03-01T10:04:19.934Z,13.40
2018-03-01T10:05:19.866Z,14.20
2018-03-01T10:06:19.875Z,13.40
2018-03-01T10:07:19.848Z,13.70
2018-03-01T10:08:19.871Z,13.50
2018-03-01T10:09:19.826Z,13.30
2018-03-01T10:10:19.817Z,13.30
2018-03-01T10:11:19.803Z,13.40
2018-03-01T10:12:19.795Z,14.00
2018-03-01T10:13:19.788Z,12.70
2018-03-01T10:14:19.831Z,12.50
2018-03-01T10:15:19.771Z,12.80
2018-03-01T10:16:19.766Z,12.50
2018-03-01T10:17:19.761Z,13.20
2018-03-01T10:18:19.746Z,13.10
2018-03-01T10:19:19.737Z,12.90
2018-03-01T10:20:19.734Z,13.10
2018-03-01T10:21:19.721Z,13.20
2018-03-01T10:22:19.718Z,13.10
2018-03-01T10:23:19.711Z,13.60
2018-03-01T10:24:19.706Z,13.30
2018-03-01T10:25:19.706Z,13.50
2018-03-01T10:26:19.692Z,14.20
2018-03-01T10:27:19.684Z,13.80
2018-03-01T10:28:19.683Z,13.40
2018-03-01T10:29:19.676Z,12.70
2018-03-01T10:30:19.668Z,12.90
2018-03-01T10:31:19.670Z,13.20
2018-03-01T10:32:19.656Z,13.60
2018-03-01T10:33:19.657Z,14.00
2018-03-01T10:34:19.649Z,14.30
2018-03-01T10:35:19.641Z,14.40
2018-03-01T10:36:19.635Z,13.90
2018-03-01T10:37:19.635Z,13.70
2018-03-01T10:38:19.625Z,13.90
2018-03-01T10:39:19.620Z,12.80
2018-03-01T10:40:19.623Z,12.50
2018-03-01T10:41:19.671Z,12.90
2018-03-01T10:42:19.610Z,13.20
2018-03-01T10:43:19.605Z,12.60
2018-03-01T10:44:19.598Z,13.60
2018-03-01T10:45:19.601Z,12.70
2018-03-01T10:46:19.591Z,12.80
2018-03-01T10:47:19.596Z,13.70
2018-03-01T10:48:19.584Z,12.90
2018-03-01T10:49:19.584Z,12.40
2018-03-01T10:50:19.579Z,13.40
2018-03-01T10:51:19.625Z,14.10
2018-03-01T10:52:19.571Z,13.60
2018-03-01T10:53:19.580Z,12.90
2018-03-01T10:54:19.566Z,14.10
2018-03-01T10:55:19.564Z,13.20
2018-03-01T10:56:19.562Z,13.30
2018-03-01T10:57:19.566Z,12.70
2018-03-01T10:58:19.555Z,13.50
2018-03-01T10:59:19.651Z,12.90
2018-03-01T11:00:19.554Z,12.70
2018-03-01T11:01:19.551Z,12.80
2018-03-01T11:02:19.546Z,13.80
2018-03-01T11:03:19.547Z,13.30
2018-03-01T11:04:19.543Z,13.20
2018-03-01T11:05:19.542Z,13.20
2018-03-01T11:06:19.538Z,13.10
2018-03-01T11:07:19.535Z,12.60
2018-03-01T11:08:19.536Z,12.90
2018-03-01T11:09:19.540Z,12.90
2018-03-01T11:10:19.589Z,12.80
2018-03-01T11:11:19.532Z,13.60
2018-03-01T11:12:19.600Z,12.70
2018-03-01T11:13:19.527Z,13.30
2018-03-01T11:14:19.616Z,12.70
2018-03-01T11:15:19.526Z,12.10
2018-03-01T11:16:19.529Z,12.30
2018-03-01T11:17:19.529Z,11.50
2018-03-01T11:18:19.608Z,13.10
2018-03-01T11:19:19.518Z,12.80
2018-03-01T11:20:19.536Z,12.60
2018-03-01T11:21:19.518Z,12.80
2018-03-01T11:22:19.521Z,13.10
2018-03-01T11:23:19.533Z,12.70
2018-03-01T11:24:19.512Z,12.20
2018-03-01T11:25:19.510Z,12.40
2018-03-01T11:26:19.508Z,12.00
2018-03-01T11:27:19.511Z,12.10
2018-03-01T11:28:19.518Z,12.20
2018-03-01T11:29:19.508Z,12.40
2018-03-01T11:30:19.516Z,13.00
2018-03-01T11:31:19.506Z,12.80
2018-03-01T11:32:19.509Z,12.70
2018-03-01T11:33:19.511Z,12.40
2018-03-01T11:34:19.506Z,11.80
2018-03-01T11:35:19.518Z,12.20
2018-03-01T11:36:19.507Z,11.10
2018-03-01T11:37:19.505Z,11.90
2018-03-01T11:38:19.509Z,12.80
2018-03-01T11:39:19.570Z,12.50
2018-03-01T11:40:19.508Z,12.40
2018-03-01T11:41:19.514Z,13.00
2018-03-01T11:42:19.505Z,12.60
2018-03-01T11:43:19.561Z,12.80
2018-03-01T11:44:19.500Z,12.10
2018-03-01T11:45:19.510Z,12.20
2018-03-01T11:46:19.500Z,11.60
2018-03-01T11:47:19.571Z,12.40
2018-03-01T11:48:19.500Z,12.50
2018-03-01T11:49:19.504Z,12.40
2018-03-01T11:50:19.502Z,12.70
2018-03-01T11:51:19.503Z,13.10
2018-03-01T11:52:19.505Z,12.60
2018-03-01T11:53:19.495Z,12.70
2018-03-01T11:54:19.496Z,12.80
2018-03-01T11:55:19.499Z,12.80
2018-03-01T11:56:19.496Z,12.20
2018-03-01T11:57:19.506Z,11.90
2018-03-01T11:58:19.493Z,13.00
2018-03-01T11:59:19.491Z,12.60
2018-03-01T12:00:19.491Z,11.90
2018-03-01T12:01:19.491Z,12.20
2018-03-01T12:02:19.491Z,12.50
2018-03-01T12:03:19.488Z,12.00
2018-03-01T12:04:19.489Z,12.60
2018-03-01T12:05:19.488Z,11.90
2018-03-01T12:06:19.489Z,12.40
2018-03-01T12:07:19.488Z,11.90
2018-03-01T12:08:19.485Z,11.40
2018-03-01T12:09:19.485Z,12.30
2018-03-01T12:10:19.490Z,12.40
2018-03-01T12:11:19.485Z,12.50
2018-03-01T12:12:19.523Z,12.00
2018-03-01T12:13:19.483Z,11.90
2018-03-01T12:14:19.492Z,11.70
2018-03-01T12:15:19.484Z,12.20
2018-03-01T12:16:19.511Z,11.70
2018-03-01T12:17:19.485Z,12.40
2018-03-01T12:18:19.480Z,11.80
2018-03-01T12:19:19.476Z,12.70
2018-03-01T12:20:19.522Z,11.70
2018-03-01T12:21:19.474Z,12.20
2018-03-01T12:22:19.472Z,12.30
2018-03-01T12:23:19.470Z,12.50
2018-03-01T12:24:19.469Z,12.50
2018-03-01T12:25:19.470Z,11.70
2018-03-01T12:26:19.469Z,10.90
2018-03-01T12:27:19.462Z,11.30
2018-03-01T12:28:19.463Z,11.20
2018-03-01T12:29:19.460Z,11.50
2018-03-01T12:30:19.460Z,11.70
2018-03-01T12:31:19.463Z,12.20
2018-03-01T12:32:19.457Z,11.50
2018-03-01T12:33:19.455Z,11.30
2018-03-01T12:34:19.453Z,12.10
2018-03-01T12:35:19.449Z,12.00
2018-03-01T12:36:19.447Z,11.40
2018-03-01T12:37:19.454Z,11.90
2018-03-01T12:38:19.447Z,12.90
2018-03-01T12:39:19.452Z,11.70
2018-03-01T12:40:19.441Z,11.60
2018-03-01T12:41:19.480Z,11.90
2018-03-01T12:42:19.432Z,12.00
2018-03-01T12:43:19.518Z,11.70
2018-03-01T12:44:19.440Z,11.80
2018-03-01T12:45:19.430Z,11.90
2018-03-01T12:46:19.435Z,12.40
2018-03-01T12:47:19.482Z,13.30
2018-03-01T12:48:19.416Z,11.60
2018-03-01T12:49:19.416Z,12.90
2018-03-01T12:50:19.412Z,12.60
2018-03-01T12:51:19.406Z,16.10
2018-03-01T12:52:19.404Z,13.00